createdAt,value
2022-09-12T00:02:17.618Z,12.84
2022-09-12T00:05:20.311Z,12.84
2022-09-12T00:08:23.095Z,12.80
2022-09-12T00:11:26.546Z,12.82
2022-09-12T00:14:29.039Z,12.82
2022-09-12T00:17:34.591Z,12.80
2022-09-12T00:20:42.285Z,12.75
2022-09-12T00:23:45.964Z,12.72
2022-09-12T00:26:48.869Z,12.71
2022-09-12T00:29:51.425Z,12.74
2022-09-12T00:32:54.893Z,12.71
2022-09-12T00:35:57.322Z,12.75
2022-09-12T00:38:59.815Z,12.75
2022-09-12T00:42:02.248Z,12.74
2022-09-12T00:45:05.261Z,12.76
2022-09-12T00:48:16.395Z,12.70
2022-09-12T00:51:19.394Z,12.68
2022-09-12T00:54:25.009Z,12.71
2022-09-12T00:57:31.519Z,12.74
2022-09-12T01:00:34.046Z,12.81
2022-09-12T01:03:36.597Z,12.74
2022-09-12T01:06:43.373Z,12.75
2022-09-12T01:09:46.293Z,12.80
2022-09-12T01:12:49.167Z,12.78
2022-09-12T01:15:52.806Z,12.75
2022-09-12T01:19:04.269Z,12.78
2022-09-12T01:22:22.014Z,12.74
2022-09-12T01:25:57.037Z,12.72
2022-09-12T01:29:23.465Z,12.68
2022-09-12T01:32:35.120Z,12.65
2022-09-12T01:35:55.069Z,12.59
2022-09-12T01:39:01.583Z,12.58
2022-09-12T01:42:10.387Z,12.55
2022-09-12T01:45:28.586Z,12.51
2022-09-12T01:48:57.441Z,12.48
2022-09-12T01:52:21.727Z,12.45
2022-09-12T01:55:28.502Z,12.40
2022-09-12T01:58:39.178Z,12.39
2022-09-12T02:01:47.709Z,12.34
2022-09-12T02:05:01.683Z,12.28
2022-09-12T02:08:12.163Z,12.23
2022-09-12T02:11:14.674Z,12.18
2022-09-12T02:14:24.454Z,12.16
2022-09-12T02:17:27.201Z,12.16
2022-09-12T02:20:47.464Z,12.13
2022-09-12T02:23:56.987Z,12.11
2022-09-12T02:27:10.354Z,12.13
2022-09-12T02:30:16.646Z,12.18
2022-09-12T02:33:27.731Z,12.18
2022-09-12T02:36:43.632Z,12.16
2022-09-12T02:39:46.783Z,12.21
2022-09-12T02:42:49.739Z,12.21
2022-09-12T02:45:52.391Z,12.21
2022-09-12T02:48:56.829Z,12.20
2022-09-12T02:52:00.169Z,12.23
2022-09-12T02:55:05.060Z,12.24
2022-09-12T02:58:12.293Z,12.20
2022-09-12T03:01:23.902Z,12.21
2022-09-12T03:04:47.948Z,12.16
2022-09-12T03:07:57.435Z,12.16
2022-09-12T03:11:14.695Z,12.18
2022-09-12T03:14:29.867Z,12.23
2022-09-12T03:17:56.575Z,12.21
2022-09-12T03:21:37.571Z,12.28
2022-09-12T03:25:03.307Z,12.33
2022-09-12T03:28:09.506Z,12.34
2022-09-12T03:31:16.812Z,12.37
2022-09-12T03:34:20.267Z,12.36
2022-09-12T03:37:22.713Z,12.34
2022-09-12T03:40:25.147Z,12.38
2022-09-12T03:43:27.607Z,12.37
2022-09-12T03:46:30.093Z,12.40
2022-09-12T03:49:32.568Z,12.40
2022-09-12T03:52:35.172Z,12.40
2022-09-12T03:55:39.077Z,12.37
2022-09-12T03:58:41.634Z,12.34
2022-09-12T04:01:44.094Z,12.34
2022-09-12T04:04:48.803Z,12.31
2022-09-12T04:07:51.974Z,12.29
2022-09-12T04:10:54.412Z,12.28
2022-09-12T04:13:56.899Z,12.28
2022-09-12T04:16:59.377Z,12.32
2022-09-12T04:20:02.106Z,12.33
2022-09-12T04:23:04.557Z,12.38
2022-09-12T04:26:07.655Z,12.38
2022-09-12T04:29:11.970Z,12.39
2022-09-12T04:32:15.276Z,12.36
2022-09-12T04:35:17.768Z,12.35
2022-09-12T04:38:20.426Z,12.32
2022-09-12T04:41:25.234Z,12.31
2022-09-12T04:44:27.700Z,12.34
2022-09-12T04:47:30.127Z,12.38
2022-09-12T04:50:32.512Z,12.41
2022-09-12T04:53:35.737Z,12.41
2022-09-12T04:56:40.677Z,12.41
2022-09-12T04:59:43.183Z,12.40
2022-09-12T05:02:45.663Z,12.41
2022-09-12T05:05:48.181Z,12.42
2022-09-12T05:08:52.215Z,12.39
2022-09-12T05:12:09.938Z,12.41
2022-09-12T05:15:12.539Z,12.43
2022-09-12T05:18:15.031Z,12.55
2022-09-12T05:21:20.701Z,12.65
2022-09-12T05:24:23.192Z,12.80
2022-09-12T05:27:25.646Z,12.96
2022-09-12T05:30:28.076Z,13.11
2022-09-12T05:33:31.443Z,13.26
2022-09-12T05:36:34.102Z,13.36
2022-09-12T05:39:36.611Z,13.54
2022-09-12T05:42:39.216Z,13.69
2022-09-12T05:45:42.307Z,13.67
2022-09-12T05:48:46.432Z,13.76
2022-09-12T05:51:49.069Z,13.77
2022-09-12T05:54:51.666Z,13.69
2022-09-12T05:57:54.318Z,13.61
2022-09-12T06:01:01.351Z,13.55
2022-09-12T06:04:06.378Z,13.57
2022-09-12T06:07:09.136Z,13.70
2022-09-12T06:10:12.077Z,14.00
2022-09-12T06:13:14.462Z,14.25
2022-09-12T06:16:21.822Z,14.53
2022-09-12T06:19:25.630Z,14.60
2022-09-12T06:22:28.316Z,14.49
2022-09-12T06:25:30.754Z,14.50
2022-09-12T06:28:35.529Z,14.64
2022-09-12T06:31:39.267Z,14.84
2022-09-12T06:34:41.718Z,14.98
2022-09-12T06:37:44.973Z,15.10
2022-09-12T06:40:47.419Z,15.22
2022-09-12T06:43:50.386Z,15.31
2022-09-12T06:46:54.268Z,15.51
2022-09-12T06:49:56.669Z,15.71
2022-09-12T06:52:59.121Z,15.80
2022-09-12T06:56:03.974Z,15.88
2022-09-12T06:59:06.903Z,16.04
2022-09-12T07:02:10.282Z,16.09
2022-09-12T07:05:14.052Z,16.19
2022-09-12T07:08:16.453Z,16.36
2022-09-12T07:11:24.611Z,16.71
2022-09-12T07:14:27.007Z,16.98
2022-09-12T07:17:29.506Z,16.94
2022-09-12T07:20:35.925Z,16.83
2022-09-12T07:23:40.143Z,16.87
2022-09-12T07:26:42.775Z,16.82
2022-09-12T07:29:46.951Z,16.82
2022-09-12T07:32:54.063Z,16.99
2022-09-12T07:36:01.213Z,17.22
2022-09-12T07:39:03.713Z,17.21
2022-09-12T07:42:07.158Z,17.39
2022-09-12T07:45:10.418Z,17.34
2022-09-12T07:48:12.992Z,17.34
2022-09-12T07:51:15.520Z,17.42
2022-09-12T07:54:18.520Z,17.90
2022-09-12T07:57:21.399Z,18.04
2022-09-12T08:00:23.857Z,18.06
2022-09-12T08:03:26.531Z,18.39
2022-09-12T08:06:32.192Z,18.57
2022-09-12T08:09:35.076Z,18.02
2022-09-12T08:12:37.523Z,17.98
2022-09-12T08:15:39.991Z,18.15
2022-09-12T08:18:42.547Z,18.18
2022-09-12T08:21:45.100Z,18.38
2022-09-12T08:24:48.335Z,18.72
2022-09-12T08:27:51.093Z,18.66
2022-09-12T08:30:54.691Z,18.62
2022-09-12T08:33:58.314Z,18.25
2022-09-12T08:37:01.021Z,18.81
2022-09-12T08:40:06.904Z,19.05
2022-09-12T08:43:45.724Z,19.41
2022-09-12T08:47:12.840Z,19.86
2022-09-12T08:50:19.882Z,19.69
2022-09-12T08:53:23.551Z,19.92
2022-09-12T08:56:31.585Z,20.43
2022-09-12T08:59:38.489Z,20.48
2022-09-12T09:03:00.230Z,20.88
2022-09-12T09:06:51.079Z,20.14
2022-09-12T09:10:09.355Z,20.40
2022-09-12T09:13:37.920Z,20.75
2022-09-12T09:16:43.035Z,21.32
2022-09-12T09:19:59.958Z,20.88
2022-09-12T09:23:17.598Z,19.90
2022-09-12T09:26:27.457Z,20.01
2022-09-12T09:29:41.399Z,20.48
2022-09-12T09:32:46.207Z,20.91
2022-09-12T09:35:56.959Z,21.36
2022-09-12T09:39:13.550Z,20.41
2022-09-12T09:42:18.693Z,21.51
2022-09-12T09:45:24.504Z,21.50
2022-09-12T09:48:29.910Z,20.38
2022-09-12T09:51:37.268Z,19.81
2022-09-12T09:54:44.964Z,19.57
2022-09-12T09:57:47.830Z,19.74
2022-09-12T10:00:54.847Z,19.66
2022-09-12T10:03:59.491Z,19.78
2022-09-12T10:07:04.447Z,20.77
2022-09-12T10:10:07.803Z,21.33
2022-09-12T10:13:24.334Z,21.04
2022-09-12T10:16:35.608Z,21.23
2022-09-12T10:19:40.728Z,20.77
2022-09-12T10:22:48.293Z,20.50
2022-09-12T10:25:56.965Z,20.53
2022-09-12T10:29:04.757Z,21.05
2022-09-12T10:32:08.476Z,21.90
2022-09-12T10:35:23.752Z,22.78
2022-09-12T10:38:28.393Z,21.73
2022-09-12T10:41:38.338Z,21.35
2022-09-12T10:44:53.435Z,21.45
2022-09-12T10:48:05.525Z,21.18
2022-09-12T10:51:25.334Z,20.54
2022-09-12T10:54:28.816Z,20.34
2022-09-12T10:57:52.858Z,21.47
2022-09-12T11:01:02.438Z,23.02
2022-09-12T11:04:33.036Z,22.71
2022-09-12T11:07:35.599Z,22.53
2022-09-12T11:11:12.622Z,24.14
2022-09-12T11:14:25.330Z,22.70
2022-09-12T11:17:57.485Z,22.40
2022-09-12T11:21:17.704Z,21.33
2022-09-12T11:24:31.630Z,22.49
2022-09-12T11:27:46.083Z,23.42
2022-09-12T11:30:55.536Z,24.34
2022-09-12T11:33:59.522Z,24.41
2022-09-12T11:37:37.482Z,25.55
2022-09-12T11:40:57.052Z,25.74
2022-09-12T11:44:22.772Z,24.37
2022-09-12T11:47:25.612Z,24.62
2022-09-12T11:50:32.442Z,25.81
2022-09-12T11:53:39.128Z,26.16
2022-09-12T11:56:51.499Z,25.22
2022-09-12T11:59:58.810Z,25.31
2022-09-12T12:03:07.382Z,25.45
2022-09-12T12:06:22.060Z,25.99
2022-09-12T12:09:24.797Z,26.71
2022-09-12T12:12:29.169Z,27.24
2022-09-12T12:15:32.033Z,27.41
2022-09-12T12:18:37.915Z,25.92
2022-09-12T12:21:42.699Z,27.06
2022-09-12T12:24:55.215Z,26.21
2022-09-12T12:28:02.002Z,26.51
2022-09-12T12:31:05.599Z,26.48
2022-09-12T12:34:22.934Z,26.69
2022-09-12T13:03:02.985Z,25.68
2022-09-12T13:06:07.421Z,27.27
2022-09-12T13:09:51.912Z,25.75
2022-09-12T13:12:56.851Z,23.96
2022-09-12T13:15:59.510Z,23.50
2022-09-12T13:19:08.650Z,23.33
2022-09-12T13:22:11.219Z,22.86
2022-09-12T13:25:23.183Z,22.73
2022-09-12T13:28:27.223Z,22.77
2022-09-12T13:31:30.713Z,22.50
2022-09-12T13:35:12.365Z,22.43
2022-09-12T13:38:52.593Z,22.23
2022-09-12T13:42:32.340Z,21.78
2022-09-12T13:45:38.378Z,21.22
2022-09-12T13:48:41.344Z,21.22
2022-09-12T13:51:43.974Z,21.13
2022-09-12T13:54:50.492Z,20.90
2022-09-12T13:57:58.363Z,20.80
2022-09-12T14:01:10.027Z,20.82
2022-09-12T14:04:43.485Z,21.18
2022-09-12T14:07:55.342Z,22.04
2022-09-12T14:10:58.880Z,22.52
2022-09-12T14:14:05.353Z,22.10
2022-09-12T14:17:23.691Z,21.82
2022-09-12T14:20:33.292Z,21.51
2022-09-12T14:23:41.717Z,21.88
2022-09-12T14:26:45.080Z,22.33
2022-09-12T14:29:47.832Z,22.21
2022-09-12T14:33:12.466Z,23.46
2022-09-12T14:36:24.265Z,25.46
2022-09-12T14:39:32.939Z,25.22
2022-09-12T14:42:35.676Z,25.60
2022-09-12T14:45:40.142Z,25.67
2022-09-12T14:49:07.146Z,26.73
2022-09-12T14:52:22.241Z,26.64
2022-09-12T14:55:30.374Z,25.43
2022-09-12T14:58:33.578Z,24.31
2022-09-12T15:01:37.951Z,24.23
2022-09-12T15:04:52.676Z,24.04
2022-09-12T15:07:58.045Z,24.27
2022-09-12T15:11:06.692Z,24.16
2022-09-12T15:14:15.619Z,23.42
2022-09-12T15:17:18.339Z,22.50
2022-09-12T15:20:22.604Z,23.54
2022-09-12T15:23:47.177Z,23.02
2022-09-12T15:26:51.287Z,22.06
2022-09-12T15:29:54.084Z,21.92
2022-09-12T15:33:00.279Z,23.08
2022-09-12T15:36:13.583Z,23.49
2022-09-12T15:39:16.134Z,22.74
2022-09-12T15:42:28.412Z,21.73
2022-09-12T15:45:33.002Z,21.49
2022-09-12T15:48:36.062Z,21.22
2022-09-12T15:51:38.916Z,21.07
2022-09-12T15:54:41.720Z,20.88
2022-09-12T15:57:44.582Z,20.76
2022-09-12T16:00:47.180Z,20.75
2022-09-12T16:03:49.688Z,20.73
2022-09-12T16:06:54.731Z,20.60
2022-09-12T16:09:57.405Z,20.54
2022-09-12T16:13:00.198Z,20.45
2022-09-12T16:16:03.122Z,20.25
2022-09-12T16:19:05.724Z,20.07
2022-09-12T16:22:08.246Z,19.98
2022-09-12T16:25:10.893Z,19.87
2022-09-12T16:28:13.385Z,19.68
2022-09-12T16:31:16.102Z,19.47
2022-09-12T16:34:18.666Z,19.29
2022-09-12T16:37:21.438Z,19.01
2022-09-12T16:40:23.872Z,18.85
2022-09-12T16:43:26.417Z,18.64
2022-09-12T16:46:32.058Z,18.43
2022-09-12T16:49:34.830Z,18.20
2022-09-12T16:52:37.814Z,17.98
2022-09-12T16:55:40.409Z,17.72
2022-09-12T16:58:43.764Z,17.47
2022-09-12T17:01:46.428Z,17.34
2022-09-12T17:04:52.815Z,17.18
2022-09-12T17:07:55.467Z,16.98
2022-09-12T17:11:06.122Z,16.82
2022-09-12T17:14:10.922Z,16.68
2022-09-12T17:17:13.819Z,16.53
2022-09-12T17:20:16.401Z,16.35
2022-09-12T17:23:19.084Z,16.17
2022-09-12T17:26:22.315Z,16.04
2022-09-12T17:29:25.197Z,15.91
2022-09-12T17:32:27.792Z,15.76
2022-09-12T17:35:30.507Z,15.58
2022-09-12T17:38:34.937Z,15.47
2022-09-12T17:41:38.173Z,15.33
2022-09-12T17:44:41.829Z,15.21
2022-09-12T17:47:44.380Z,15.09
2022-09-12T17:50:48.116Z,15.02
2022-09-12T17:54:12.030Z,14.92
2022-09-12T17:57:14.936Z,14.84
2022-09-12T18:00:17.863Z,14.73
2022-09-12T18:03:24.472Z,14.62
2022-09-12T18:06:28.550Z,14.58
2022-09-12T18:09:31.135Z,14.41
2022-09-12T18:12:35.915Z,14.23
2022-09-12T18:15:38.622Z,14.22
2022-09-12T18:18:41.413Z,14.08
2022-09-12T18:21:44.158Z,13.97
2022-09-12T18:24:47.000Z,13.90
2022-09-12T18:27:50.031Z,13.81
2022-09-12T18:30:54.658Z,13.74
2022-09-12T18:33:59.962Z,13.63
2022-09-12T18:37:07.208Z,13.53
2022-09-12T18:40:10.477Z,13.38
2022-09-12T18:43:14.455Z,13.32
2022-09-12T18:46:18.936Z,13.21
2022-09-12T18:49:21.857Z,13.12
2022-09-12T18:52:26.074Z,12.94
2022-09-12T18:55:33.167Z,12.78
2022-09-12T18:58:36.677Z,12.67
2022-09-12T19:01:39.291Z,12.65
2022-09-12T19:04:41.996Z,12.52
2022-09-12T19:07:44.798Z,12.47
2022-09-12T19:10:56.655Z,12.39
2022-09-12T19:13:59.860Z,12.33
2022-09-12T19:17:02.837Z,12.25
2022-09-12T19:20:06.284Z,12.13
2022-09-12T19:23:08.841Z,12.03
2022-09-12T19:26:13.770Z,11.90
2022-09-12T19:29:16.829Z,11.83
2022-09-12T19:32:19.443Z,11.72
2022-09-12T19:35:21.982Z,11.68
2022-09-12T19:38:24.515Z,11.51
2022-09-12T19:41:27.895Z,11.43
2022-09-12T19:44:30.621Z,11.38
2022-09-12T19:47:34.576Z,11.32
2022-09-12T19:50:37.290Z,11.33
2022-09-12T19:53:40.996Z,11.23
2022-09-12T19:56:43.619Z,11.14
2022-09-12T19:59:46.407Z,11.18
2022-09-12T20:02:52.922Z,11.18
2022-09-12T20:06:02.281Z,11.12
2022-09-12T20:09:04.921Z,11.03
2022-09-12T20:12:08.023Z,10.99
2022-09-12T20:15:14.243Z,10.86
2022-09-12T20:18:16.791Z,10.80
2022-09-12T20:21:22.068Z,10.84
2022-09-12T20:24:24.595Z,10.89
2022-09-12T20:27:27.143Z,10.91
2022-09-12T20:30:31.007Z,10.97
2022-09-12T20:33:34.347Z,10.95
2022-09-12T20:36:36.831Z,10.94
2022-09-12T20:39:39.339Z,10.91
2022-09-12T20:42:42.470Z,10.90
2022-09-12T20:45:44.943Z,10.81
2022-09-12T20:48:47.488Z,10.78
2022-09-12T20:51:50.447Z,10.75
2022-09-12T20:54:52.992Z,10.69
2022-09-12T20:57:55.472Z,10.68
2022-09-12T21:00:57.892Z,10.61
2022-09-12T21:04:01.359Z,10.55
2022-09-12T21:07:03.769Z,10.48
2022-09-12T21:10:06.525Z,10.44
2022-09-12T21:13:10.409Z,10.35
2022-09-12T21:16:18.013Z,10.32
2022-09-12T21:19:20.582Z,10.23
2022-09-12T21:22:23.253Z,10.16
2022-09-12T21:25:25.804Z,10.13
2022-09-12T21:28:28.742Z,10.07
2022-09-12T21:31:31.268Z,9.94
2022-09-12T21:34:34.106Z,9.83
2022-09-12T21:37:36.561Z,9.74
2022-09-12T21:40:39.015Z,9.67
2022-09-12T21:43:42.067Z,9.69
2022-09-12T21:46:44.921Z,9.62
2022-09-12T21:49:47.333Z,9.60
2022-09-12T21:52:49.841Z,9.60
2022-09-12T21:56:00.955Z,9.51
2022-09-12T21:59:03.766Z,9.49
2022-09-12T22:02:08.724Z,9.43
2022-09-12T22:05:14.422Z,9.36
2022-09-12T22:08:18.024Z,9.36
2022-09-12T22:11:23.836Z,9.36
2022-09-12T22:14:26.497Z,9.38
2022-09-12T22:17:29.185Z,9.32
2022-09-12T22:20:32.226Z,9.24
2022-09-12T22:23:53.631Z,9.21
2022-09-12T22:26:57.299Z,9.14
2022-09-12T22:29:59.782Z,9.09
2022-09-12T22:33:02.359Z,8.99
2022-09-12T22:36:05.327Z,8.87
2022-09-12T22:39:08.641Z,8.82
2022-09-12T22:42:11.288Z,8.83
2022-09-12T22:45:13.947Z,8.76
2022-09-12T22:48:17.257Z,8.73
2022-09-12T22:51:19.968Z,8.76
2022-09-12T22:54:22.738Z,8.67
2022-09-12T22:57:25.647Z,8.58
2022-09-12T23:00:28.125Z,8.61
2022-09-12T23:03:30.696Z,8.49
2022-09-12T23:06:33.829Z,8.42
2022-09-12T23:09:36.474Z,8.46
2022-09-12T23:12:38.863Z,8.45
2022-09-12T23:15:41.606Z,8.42
2022-09-12T23:18:44.298Z,8.38
2022-09-12T23:21:46.738Z,8.34
2022-09-12T23:24:49.234Z,8.27
2022-09-12T23:27:52.091Z,8.20
2022-09-12T23:30:56.105Z,8.12
2022-09-12T23:34:02.076Z,8.11
2022-09-12T23:37:07.530Z,8.01
2022-09-12T23:40:10.629Z,7.97
2022-09-12T23:43:13.070Z,7.98
2022-09-12T23:46:16.664Z,7.86
2022-09-12T23:49:20.206Z,7.90
2022-09-12T23:52:22.663Z,7.87
2022-09-12T23:55:25.148Z,7.83
2022-09-12T23:58:28.012Z,7.83
